sensor_id;sensor_type;location;lat;lon;timestamp;pressure;altitude;pressure_sealevel;temperature;humidity
55066;BME280;40964;42.114;24.220;2023-02-19T00:02:21;97992.91;;;9.60;53.22
55066;BME280;40964;42.114;24.220;2023-02-19T00:04:46;97984.03;;;9.61;53.12
55066;BME280;40964;42.114;24.220;2023-02-19T00:07:12;97994.19;;;9.38;54.62
55066;BME280;40964;42.114;24.220;2023-02-19T00:09:37;97976.00;;;9.30;54.44
55066;BME280;40964;42.114;24.220;2023-02-19T00:12:03;97969.75;;;9.37;54.17
55066;BME280;40964;42.114;24.220;2023-02-19T00:14:28;97956.81;;;9.43;54.35
55066;BME280;40964;42.114;24.220;2023-02-19T00:16:54;97955.19;;;9.42;53.93
55066;BME280;40964;42.114;24.220;2023-02-19T00:19:19;97951.75;;;9.48;53.57
55066;BME280;40964;42.114;24.220;2023-02-19T00:21:46;97949.34;;;9.53;53.72
55066;BME280;40964;42.114;24.220;2023-02-19T00:24:13;97962.25;;;9.54;53.44
55066;BME280;40964;42.114;24.220;2023-02-19T00:26:39;97960.03;;;9.51;53.29
55066;BME280;40964;42.114;24.220;2023-02-19T00:29:05;97946.94;;;9.45;53.39
55066;BME280;40964;42.114;24.220;2023-02-19T00:31:32;97954.38;;;9.48;53.93
55066;BME280;40964;42.114;24.220;2023-02-19T00:34:00;97950.38;;;9.38;54.18
55066;BME280;40964;42.114;24.220;2023-02-19T00:36:26;97950.56;;;9.30;54.61
55066;BME280;40964;42.114;24.220;2023-02-19T00:38:53;97945.91;;;9.46;53.46
55066;BME280;40964;42.114;24.220;2023-02-19T00:41:21;97957.59;;;9.56;53.15
55066;BME280;40964;42.114;24.220;2023-02-19T00:46:39;97933.75;;;9.51;53.68
55066;BME280;40964;42.114;24.220;2023-02-19T00:49:06;97943.50;;;9.44;53.50
55066;BME280;40964;42.114;24.220;2023-02-19T00:51:35;97944.91;;;9.33;53.80
55066;BME280;40964;42.114;24.220;2023-02-19T00:54:02;97939.66;;;9.33;54.14
55066;BME280;40964;42.114;24.220;2023-02-19T00:56:28;97938.25;;;9.44;53.77
55066;BME280;40964;42.114;24.220;2023-02-19T00:58:53;97950.97;;;9.41;53.61
55066;BME280;40964;42.114;24.220;2023-02-19T01:01:19;97948.75;;;9.31;53.77
55066;BME280;40964;42.114;24.220;2023-02-19T01:03:45;97948.56;;;9.19;54.49
55066;BME280;40964;42.114;24.220;2023-02-19T01:06:14;97967.97;;;9.12;54.67
55066;BME280;40964;42.114;24.220;2023-02-19T01:08:40;97971.19;;;8.94;55.21
55066;BME280;40964;42.114;24.220;2023-02-19T01:11:06;97976.84;;;8.91;55.45
55066;BME280;40964;42.114;24.220;2023-02-19T01:13:32;97957.69;;;8.90;56.05
55066;BME280;40964;42.114;24.220;2023-02-19T01:16:05;97965.91;;;8.80;55.61
55066;BME280;40964;42.114;24.220;2023-02-19T01:18:32;97961.69;;;8.66;56.48
55066;BME280;40964;42.114;24.220;2023-02-19T01:20:57;97958.03;;;8.61;56.75
55066;BME280;40964;42.114;24.220;2023-02-19T01:23:23;97963.88;;;8.56;56.98
55066;BME280;40964;42.114;24.220;2023-02-19T01:25:48;97964.88;;;8.62;56.64
55066;BME280;40964;42.114;24.220;2023-02-19T01:28:14;97966.91;;;8.60;56.81
55066;BME280;40964;42.114;24.220;2023-02-19T01:30:39;97959.03;;;8.60;56.36
55066;BME280;40964;42.114;24.220;2023-02-19T01:33:06;97958.03;;;8.67;56.37
55066;BME280;40964;42.114;24.220;2023-02-19T01:35:32;97957.44;;;8.78;55.84
55066;BME280;40964;42.114;24.220;2023-02-19T01:37:58;97944.75;;;8.89;55.18
55066;BME280;40964;42.114;24.220;2023-02-19T01:40:24;97949.19;;;9.01;54.36
55066;BME280;40964;42.114;24.220;2023-02-19T01:42:50;97936.25;;;9.13;54.21
55066;BME280;40964;42.114;24.220;2023-02-19T01:45:30;97937.28;;;9.19;54.04
55066;BME280;40964;42.114;24.220;2023-02-19T01:48:33;97930.59;;;9.23;53.65
55066;BME280;40964;42.114;24.220;2023-02-19T01:51:05;97926.97;;;9.30;53.16
55066;BME280;40964;42.114;24.220;2023-02-19T01:53:35;97926.53;;;9.40;53.10
55066;BME280;40964;42.114;24.220;2023-02-19T01:56:02;97918.88;;;9.38;52.60
55066;BME280;40964;42.114;24.220;2023-02-19T01:58:32;97915.22;;;9.39;53.10
55066;BME280;40964;42.114;24.220;2023-02-19T02:01:00;97921.47;;;9.45;52.70
55066;BME280;40964;42.114;24.220;2023-02-19T02:03:27;97926.16;;;9.36;52.93
55066;BME280;40964;42.114;24.220;2023-02-19T02:05:58;97928.34;;;9.39;52.71
55066;BME280;40964;42.114;24.220;2023-02-19T02:08:26;97917.03;;;9.39;52.63
55066;BME280;40964;42.114;24.220;2023-02-19T02:11:11;97912.81;;;9.38;52.40
55066;BME280;40964;42.114;24.220;2023-02-19T02:13:38;97915.44;;;9.38;52.74
55066;BME280;40964;42.114;24.220;2023-02-19T02:16:24;97921.88;;;9.42;52.47
55066;BME280;40964;42.114;24.220;2023-02-19T02:21:55;97924.31;;;9.44;52.78
55066;BME280;40964;42.114;24.220;2023-02-19T02:27:16;97930.75;;;9.48;52.19
55066;BME280;40964;42.114;24.220;2023-02-19T02:32:18;97937.63;;;9.42;52.35
55066;BME280;40964;42.114;24.220;2023-02-19T02:35:07;97951.97;;;9.39;52.39
55066;BME280;40964;42.114;24.220;2023-02-19T02:37:36;97945.13;;;9.32;52.89
55066;BME280;40964;42.114;24.220;2023-02-19T02:40:04;97946.34;;;9.16;53.14
55066;BME280;40964;42.114;24.220;2023-02-19T02:42:32;97951.00;;;9.14;53.74
55066;BME280;40964;42.114;24.220;2023-02-19T02:45:33;97961.31;;;9.09;54.07
55066;BME280;40964;42.114;24.220;2023-02-19T02:53:37;97968.38;;;9.02;55.22
55066;BME280;40964;42.114;24.220;2023-02-19T02:56:24;97974.81;;;8.99;54.95
55066;BME280;40964;42.114;24.220;2023-02-19T02:58:51;97971.78;;;8.96;55.11
55066;BME280;40964;42.114;24.220;2023-02-19T03:01:25;97965.94;;;8.94;55.74
55066;BME280;40964;42.114;24.220;2023-02-19T03:04:34;97967.34;;;9.03;55.05
55066;BME280;40964;42.114;24.220;2023-02-19T03:07:04;97973.59;;;9.02;54.98
55066;BME280;40964;42.114;24.220;2023-02-19T03:09:36;97968.56;;;8.94;54.83
55066;BME280;40964;42.114;24.220;2023-02-19T03:12:06;97982.88;;;8.91;54.62
55066;BME280;40964;42.114;24.220;2023-02-19T03:14:52;97987.53;;;8.82;54.72
55066;BME280;40964;42.114;24.220;2023-02-19T03:17:41;97997.16;;;8.62;56.07
55066;BME280;40964;42.114;24.220;2023-02-19T03:20:28;97987.44;;;8.43;57.61
55066;BME280;40964;42.114;24.220;2023-02-19T03:22:58;98006.31;;;8.32;57.23
55066;BME280;40964;42.114;24.220;2023-02-19T03:25:27;98009.19;;;8.37;57.01
55066;BME280;40964;42.114;24.220;2023-02-19T03:28:15;98006.97;;;8.40;57.27
55066;BME280;40964;42.114;24.220;2023-02-19T03:30:48;97999.13;;;8.40;57.29
55066;BME280;40964;42.114;24.220;2023-02-19T03:33:18;98005.41;;;8.46;57.50
55066;BME280;40964;42.114;24.220;2023-02-19T03:35:52;97997.38;;;8.54;57.69
55066;BME280;40964;42.114;24.220;2023-02-19T03:38:27;97996.53;;;8.60;57.71
55066;BME280;40964;42.114;24.220;2023-02-19T03:52:26;98015.97;;;8.86;56.45
55066;BME280;40964;42.114;24.220;2023-02-19T03:55:16;97978.78;;;8.49;56.98
55066;BME280;40964;42.114;24.220;2023-02-19T03:57:53;98010.63;;;8.52;57.29
55066;BME280;40964;42.114;24.220;2023-02-19T04:00:39;98017.91;;;8.50;57.37
55066;BME280;40964;42.114;24.220;2023-02-19T04:03:09;98020.53;;;8.50;57.73
55066;BME280;40964;42.114;24.220;2023-02-19T04:05:42;98025.97;;;8.49;57.41
55066;BME280;40964;42.114;24.220;2023-02-19T04:08:14;98025.94;;;8.42;57.35
55066;BME280;40964;42.114;24.220;2023-02-19T04:10:41;98017.41;;;8.34;57.75
55066;BME280;40964;42.114;24.220;2023-02-19T04:13:11;98028.75;;;8.41;57.61
55066;BME280;40964;42.114;24.220;2023-02-19T04:15:41;98022.31;;;8.37;58.05
55066;BME280;40964;42.114;24.220;2023-02-19T04:18:13;98022.84;;;8.32;58.33
55066;BME280;40964;42.114;24.220;2023-02-19T04:20:42;98030.97;;;8.37;58.23
55066;BME280;40964;42.114;24.220;2023-02-19T04:23:08;98037.22;;;8.36;58.31
55066;BME280;40964;42.114;24.220;2023-02-19T04:25:36;98041.06;;;8.40;58.30
55066;BME280;40964;42.114;24.220;2023-02-19T04:28:03;98045.31;;;8.48;58.40
55066;BME280;40964;42.114;24.220;2023-02-19T04:30:30;98044.94;;;8.58;58.07
55066;BME280;40964;42.114;24.220;2023-02-19T04:32:55;98041.53;;;8.64;58.28
55066;BME280;40964;42.114;24.220;2023-02-19T04:35:21;98053.84;;;8.70;58.04
55066;BME280;40964;42.114;24.220;2023-02-19T04:37:46;98050.03;;;8.72;57.45
55066;BME280;40964;42.114;24.220;2023-02-19T04:40:12;98052.88;;;8.84;57.68
55066;BME280;40964;42.114;24.220;2023-02-19T04:42:37;98047.84;;;8.82;57.63
55066;BME280;40964;42.114;24.220;2023-02-19T04:45:03;98057.13;;;8.85;57.66
55066;BME280;40964;42.114;24.220;2023-02-19T04:47:31;98051.88;;;8.92;57.18
55066;BME280;40964;42.114;24.220;2023-02-19T04:49:56;98063.22;;;8.99;56.71
55066;BME280;40964;42.114;24.220;2023-02-19T04:52:21;98063.63;;;9.09;56.52
55066;BME280;40964;42.114;24.220;2023-02-19T04:54:47;98066.88;;;9.18;56.00
55066;BME280;40964;42.114;24.220;2023-02-19T04:57:13;98066.88;;;9.18;55.57
55066;BME280;40964;42.114;24.220;2023-02-19T04:59:38;98084.81;;;9.21;55.58
55066;BME280;40964;42.114;24.220;2023-02-19T05:02:03;98087.84;;;9.18;55.75
55066;BME280;40964;42.114;24.220;2023-02-19T05:04:29;98090.66;;;9.16;56.07
55066;BME280;40964;42.114;24.220;2023-02-19T05:06:55;98104.78;;;9.08;56.28
55066;BME280;40964;42.114;24.220;2023-02-19T05:09:20;98119.63;;;8.75;56.97
55066;BME280;40964;42.114;24.220;2023-02-19T05:11:45;98114.69;;;8.52;57.71
55066;BME280;40964;42.114;24.220;2023-02-19T05:14:11;98126.78;;;8.46;57.88
55066;BME280;40964;42.114;24.220;2023-02-19T05:16:36;98123.09;;;8.41;58.27
55066;BME280;40964;42.114;24.220;2023-02-19T05:19:02;98131.78;;;8.41;58.25
55066;BME280;40964;42.114;24.220;2023-02-19T05:21:27;98127.75;;;8.39;57.92
55066;BME280;40964;42.114;24.220;2023-02-19T05:23:53;98139.44;;;8.43;58.20
55066;BME280;40964;42.114;24.220;2023-02-19T05:26:20;98137.25;;;8.46;57.81
55066;BME280;40964;42.114;24.220;2023-02-19T05:28:49;98124.75;;;8.48;57.69
55066;BME280;40964;42.114;24.220;2023-02-19T05:31:15;98131.38;;;8.44;58.69
55066;BME280;40964;42.114;24.220;2023-02-19T05:33:41;98138.91;;;8.26;59.99
55066;BME280;40964;42.114;24.220;2023-02-19T05:36:12;98132.78;;;8.12;60.19
55066;BME280;40964;42.114;24.220;2023-02-19T05:38:39;98138.91;;;8.26;59.81
55066;BME280;40964;42.114;24.220;2023-02-19T05:41:15;98141.56;;;8.33;59.61
55066;BME280;40964;42.114;24.220;2023-02-19T05:43:43;98134.41;;;8.41;59.41
55066;BME280;40964;42.114;24.220;2023-02-19T05:46:11;98134.66;;;8.53;58.90
55066;BME280;40964;42.114;24.220;2023-02-19T05:48:36;98146.03;;;8.73;58.35
55066;BME280;40964;42.114;24.220;2023-02-19T05:51:03;98149.31;;;8.89;57.72
55066;BME280;40964;42.114;24.220;2023-02-19T05:53:29;98153.56;;;8.96;57.77
55066;BME280;40964;42.114;24.220;2023-02-19T05:55:55;98155.81;;;8.93;57.51
55066;BME280;40964;42.114;24.220;2023-02-19T05:58:20;98156.88;;;9.25;53.57
55066;BME280;40964;42.114;24.220;2023-02-19T06:00:46;98153.72;;;9.76;52.78
55066;BME280;40964;42.114;24.220;2023-02-19T06:03:11;98160.19;;;10.00;51.60
55066;BME280;40964;42.114;24.220;2023-02-19T06:05:37;98145.44;;;9.92;53.11
55066;BME280;40964;42.114;24.220;2023-02-19T06:08:02;98148.69;;;9.81;53.48
55066;BME280;40964;42.114;24.220;2023-02-19T06:10:28;98151.88;;;9.96;53.44
55066;BME280;40964;42.114;24.220;2023-02-19T06:12:53;98163.63;;;10.07;53.18
55066;BME280;40964;42.114;24.220;2023-02-19T06:15:19;98155.31;;;10.16;52.72
55066;BME280;40964;42.114;24.220;2023-02-19T06:17:45;98159.97;;;10.28;52.39
55066;BME280;40964;42.114;24.220;2023-02-19T06:20:11;98163.38;;;10.41;52.13
55066;BME280;40964;42.114;24.220;2023-02-19T06:22:36;98157.88;;;10.56;51.50
55066;BME280;40964;42.114;24.220;2023-02-19T06:25:02;98159.41;;;10.77;50.30
55066;BME280;40964;42.114;24.220;2023-02-19T06:27:36;98153.19;;;11.16;48.92
55066;BME280;40964;42.114;24.220;2023-02-19T06:30:01;98158.63;;;11.53;48.08
55066;BME280;40964;42.114;24.220;2023-02-19T06:32:27;98157.09;;;11.70;47.07
55066;BME280;40964;42.114;24.220;2023-02-19T06:34:52;98152.47;;;11.90;46.58
55066;BME280;40964;42.114;24.220;2023-02-19T06:37:18;98158.69;;;12.21;45.05
55066;BME280;40964;42.114;24.220;2023-02-19T06:39:43;98166.72;;;12.51;45.02
55066;BME280;40964;42.114;24.220;2023-02-19T06:42:09;98156.06;;;12.76;44.84
55066;BME280;40964;42.114;24.220;2023-02-19T06:44:35;98164.34;;;12.98;45.04
55066;BME280;40964;42.114;24.220;2023-02-19T06:47:00;98160.03;;;13.03;45.56
55066;BME280;40964;42.114;24.220;2023-02-19T06:49:26;98162.06;;;13.01;45.00
55066;BME280;40964;42.114;24.220;2023-02-19T06:51:51;98165.53;;;12.84;45.35
55066;BME280;40964;42.114;24.220;2023-02-19T06:54:17;98164.22;;;12.74;46.10
55066;BME280;40964;42.114;24.220;2023-02-19T06:56:42;98167.75;;;12.87;46.04
55066;BME280;40964;42.114;24.220;2023-02-19T06:59:13;98167.63;;;12.93;45.70
55066;BME280;40964;42.114;24.220;2023-02-19T07:01:41;98161.84;;;12.85;45.91
55066;BME280;40964;42.114;24.220;2023-02-19T07:04:07;98155.34;;;12.87;46.17
55066;BME280;40964;42.114;24.220;2023-02-19T07:06:33;98163.16;;;12.94;45.75
55066;BME280;40964;42.114;24.220;2023-02-19T07:08:59;98153.44;;;12.94;45.33
55066;BME280;40964;42.114;24.220;2023-02-19T07:11:26;98164.03;;;13.06;44.19
55066;BME280;40964;42.114;24.220;2023-02-19T07:13:54;98149.72;;;13.14;42.99
55066;BME280;40964;42.114;24.220;2023-02-19T07:16:21;98160.69;;;13.29;42.76
55066;BME280;40964;42.114;24.220;2023-02-19T07:18:46;98161.41;;;13.36;44.19
55066;BME280;40964;42.114;24.220;2023-02-19T07:21:13;98151.72;;;13.48;44.47
55066;BME280;40964;42.114;24.220;2023-02-19T07:23:40;98156.75;;;13.50;44.18
55066;BME280;40964;42.114;24.220;2023-02-19T07:26:11;98164.00;;;13.54;43.80
55066;BME280;40964;42.114;24.220;2023-02-19T07:28:37;98159.88;;;13.58;44.55
55066;BME280;40964;42.114;24.220;2023-02-19T07:31:04;98156.78;;;13.61;44.25
55066;BME280;40964;42.114;24.220;2023-02-19T07:33:30;98163.94;;;13.73;43.82
55066;BME280;40964;42.114;24.220;2023-02-19T07:35:55;98135.06;;;13.59;44.36
55066;BME280;40964;42.114;24.220;2023-02-19T07:38:22;98161.78;;;13.93;43.72
55066;BME280;40964;42.114;24.220;2023-02-19T07:40:56;98157.41;;;13.99;44.25
55066;BME280;40964;42.114;24.220;2023-02-19T07:43:23;98159.47;;;13.97;44.43
55066;BME280;40964;42.114;24.220;2023-02-19T07:45:49;98147.75;;;14.04;43.16
55066;BME280;40964;42.114;24.220;2023-02-19T07:48:14;98147.28;;;14.19;42.58
55066;BME280;40964;42.114;24.220;2023-02-19T07:50:40;98154.19;;;14.32;42.35
55066;BME280;40964;42.114;24.220;2023-02-19T07:53:06;98152.94;;;14.46;41.32
55066;BME280;40964;42.114;24.220;2023-02-19T07:55:32;98152.13;;;14.57;41.50
55066;BME280;40964;42.114;24.220;2023-02-19T07:57:58;98148.16;;;14.71;41.99
55066;BME280;40964;42.114;24.220;2023-02-19T08:00:25;98141.47;;;14.81;40.65
55066;BME280;40964;42.114;24.220;2023-02-19T08:02:51;98136.38;;;14.91;40.55
55066;BME280;40964;42.114;24.220;2023-02-19T08:05:45;98137.47;;;15.07;41.54
55066;BME280;40964;42.114;24.220;2023-02-19T08:08:13;98126.38;;;15.10;39.50
55066;BME280;40964;42.114;24.220;2023-02-19T08:10:39;98132.22;;;15.23;39.48
55066;BME280;40964;42.114;24.220;2023-02-19T08:13:24;98126.94;;;15.40;39.40
55066;BME280;40964;42.114;24.220;2023-02-19T08:18:30;98138.00;;;15.66;38.86
55066;BME280;40964;42.114;24.220;2023-02-19T08:20:56;98136.28;;;15.59;39.12
55066;BME280;40964;42.114;24.220;2023-02-19T08:23:22;98122.22;;;15.59;39.14
55066;BME280;40964;42.114;24.220;2023-02-19T08:25:50;98127.78;;;15.57;40.04
55066;BME280;40964;42.114;24.220;2023-02-19T08:28:16;98129.72;;;15.62;39.57
55066;BME280;40964;42.114;24.220;2023-02-19T08:30:44;98129.97;;;15.60;40.56
55066;BME280;40964;42.114;24.220;2023-02-19T08:33:12;98128.69;;;15.63;39.34
55066;BME280;40964;42.114;24.220;2023-02-19T08:35:38;98128.22;;;15.66;39.30
55066;BME280;40964;42.114;24.220;2023-02-19T08:38:04;98138.97;;;15.76;39.44
55066;BME280;40964;42.114;24.220;2023-02-19T08:40:31;98134.31;;;15.83;38.70
55066;BME280;40964;42.114;24.220;2023-02-19T08:43:05;98135.03;;;15.96;38.58
55066;BME280;40964;42.114;24.220;2023-02-19T08:45:31;98130.75;;;16.11;39.33
55066;BME280;40964;42.114;24.220;2023-02-19T08:47:56;98128.00;;;16.23;40.28
55066;BME280;40964;42.114;24.220;2023-02-19T08:50:22;98127.78;;;16.46;39.02
55066;BME280;40964;42.114;24.220;2023-02-19T08:52:47;98129.41;;;16.69;39.17
55066;BME280;40964;42.114;24.220;2023-02-19T08:55:13;98096.97;;;16.67;36.39
55066;BME280;40964;42.114;24.220;2023-02-19T08:57:38;98113.38;;;16.81;36.10
55066;BME280;40964;42.114;24.220;2023-02-19T09:00:05;98108.91;;;17.09;38.68
55066;BME280;40964;42.114;24.220;2023-02-19T09:02:30;98110.97;;;17.34;37.44
55066;BME280;40964;42.114;24.220;2023-02-19T09:04:57;98102.34;;;17.48;37.85
55066;BME280;40964;42.114;24.220;2023-02-19T09:07:23;98099.72;;;17.53;34.93
55066;BME280;40964;42.114;24.220;2023-02-19T09:09:48;98104.94;;;17.70;37.74
55066;BME280;40964;42.114;24.220;2023-02-19T09:12:14;98090.72;;;17.92;36.65
55066;BME280;40964;42.114;24.220;2023-02-19T09:14:39;98092.59;;;17.96;34.35
55066;BME280;40964;42.114;24.220;2023-02-19T09:17:06;98086.22;;;17.92;34.40
55066;BME280;40964;42.114;24.220;2023-02-19T09:19:33;98081.47;;;17.99;34.21
55066;BME280;40964;42.114;24.220;2023-02-19T09:21:58;98081.91;;;17.86;34.45
55066;BME280;40964;42.114;24.220;2023-02-19T09:24:24;98082.00;;;18.01;34.11
55066;BME280;40964;42.114;24.220;2023-02-19T09:26:52;98079.13;;;18.13;33.74
55066;BME280;40964;42.114;24.220;2023-02-19T09:29:18;98086.94;;;18.30;32.97
55066;BME280;40964;42.114;24.220;2023-02-19T09:31:44;98085.34;;;18.29;32.53
55066;BME280;40964;42.114;24.220;2023-02-19T09:34:09;98068.34;;;18.35;33.93
55066;BME280;40964;42.114;24.220;2023-02-19T09:36:36;98067.88;;;18.58;33.39
55066;BME280;40964;42.114;24.220;2023-02-19T09:39:03;98061.63;;;18.80;32.90
55066;BME280;40964;42.114;24.220;2023-02-19T09:43:57;98072.28;;;18.85;32.25
55066;BME280;40964;42.114;24.220;2023-02-19T09:46:37;98073.38;;;18.99;31.80
55066;BME280;40964;42.114;24.220;2023-02-19T09:49:09;98071.22;;;18.91;32.39
55066;BME280;40964;42.114;24.220;2023-02-19T09:51:36;98064.88;;;19.07;32.01
55066;BME280;40964;42.114;24.220;2023-02-19T09:54:05;98058.69;;;18.91;31.65
55066;BME280;40964;42.114;24.220;2023-02-19T09:56:32;98054.72;;;19.04;32.58
55066;BME280;40964;42.114;24.220;2023-02-19T09:58:59;98058.97;;;19.00;31.26
55066;BME280;40964;42.114;24.220;2023-02-19T10:01:29;98046.22;;;19.07;31.30
55066;BME280;40964;42.114;24.220;2023-02-19T10:03:57;98043.53;;;19.17;31.30
55066;BME280;40964;42.114;24.220;2023-02-19T10:06:24;98038.22;;;19.33;31.09
55066;BME280;40964;42.114;24.220;2023-02-19T10:08:59;98033.97;;;19.62;31.57
55066;BME280;40964;42.114;24.220;2023-02-19T10:11:33;98036.31;;;19.84;33.07
55066;BME280;40964;42.114;24.220;2023-02-19T10:14:06;98031.22;;;19.98;31.55
55066;BME280;40964;42.114;24.220;2023-02-19T10:16:34;98029.84;;;20.10;32.38
55066;BME280;40964;42.114;24.220;2023-02-19T10:19:08;98026.56;;;20.29;31.54
55066;BME280;40964;42.114;24.220;2023-02-19T10:21:35;98019.44;;;20.14;31.24
55066;BME280;40964;42.114;24.220;2023-02-19T10:24:04;98015.94;;;20.24;31.33
55066;BME280;40964;42.114;24.220;2023-02-19T10:26:30;98010.69;;;19.88;30.28
55066;BME280;40964;42.114;24.220;2023-02-19T10:29:00;98005.66;;;19.71;30.90
55066;BME280;40964;42.114;24.220;2023-02-19T10:31:25;98001.09;;;19.77;30.87
55066;BME280;40964;42.114;24.220;2023-02-19T10:33:53;97985.88;;;19.82;30.68
55066;BME280;40964;42.114;24.220;2023-02-19T10:36:26;97990.63;;;20.01;30.11
55066;BME280;40964;42.114;24.220;2023-02-19T10:38:53;97983.19;;;19.98;31.17
55066;BME280;40964;42.114;24.220;2023-02-19T10:41:21;97979.34;;;20.24;29.73
55066;BME280;40964;42.114;24.220;2023-02-19T10:43:55;97961.88;;;20.47;29.78
55066;BME280;40964;42.114;24.220;2023-02-19T10:46:28;97950.91;;;20.49;29.84
55066;BME280;40964;42.114;24.220;2023-02-19T10:48:59;97948.88;;;20.75;31.25
55066;BME280;40964;42.114;24.220;2023-02-19T10:51:37;97943.31;;;21.05;30.15
55066;BME280;40964;42.114;24.220;2023-02-19T10:56:48;97930.59;;;21.21;30.58
55066;BME280;40964;42.114;24.220;2023-02-19T11:01:55;97915.22;;;21.61;30.23
55066;BME280;40964;42.114;24.220;2023-02-19T11:04:22;97915.19;;;21.66;28.79
55066;BME280;40964;42.114;24.220;2023-02-19T11:06:48;97914.41;;;21.36;28.86
55066;BME280;40964;42.114;24.220;2023-02-19T11:12:29;97910.09;;;20.77;29.56
55066;BME280;40964;42.114;24.220;2023-02-19T11:15:11;97898.34;;;20.78;31.25
55066;BME280;40964;42.114;24.220;2023-02-19T11:17:37;97896.94;;;20.86;29.77
55066;BME280;40964;42.114;24.220;2023-02-19T11:20:08;97896.47;;;20.79;30.24
55066;BME280;40964;42.114;24.220;2023-02-19T11:22:40;97883.78;;;20.60;29.60
55066;BME280;40964;42.114;24.220;2023-02-19T11:30:38;97883.22;;;20.92;30.33
55066;BME280;40964;42.114;24.220;2023-02-19T11:33:20;97879.47;;;20.93;29.37
55066;BME280;40964;42.114;24.220;2023-02-19T11:35:48;97879.56;;;20.83;30.10
55066;BME280;40964;42.114;24.220;2023-02-19T11:38:16;97873.78;;;20.76;29.83
55066;BME280;40964;42.114;24.220;2023-02-19T11:43:55;97858.56;;;20.72;29.51
55066;BME280;40964;42.114;24.220;2023-02-19T11:53:10;97841.00;;;20.94;29.26
55066;BME280;40964;42.114;24.220;2023-02-19T11:58:58;97838.53;;;21.27;29.33
55066;BME280;40964;42.114;24.220;2023-02-19T12:18:52;97823.41;;;21.41;29.52
55066;BME280;40964;42.114;24.220;2023-02-19T12:43:26;97785.88;;;21.65;29.05
55066;BME280;40964;42.114;24.220;2023-02-19T12:51:11;97770.91;;;21.83;29.10
55066;BME280;40964;42.114;24.220;2023-02-19T12:56:20;97763.81;;;21.92;28.74
55066;BME280;40964;42.114;24.220;2023-02-19T12:58:58;97750.28;;;22.02;28.45
55066;BME280;40964;42.114;24.220;2023-02-19T13:01:29;97757.13;;;22.27;29.27
55066;BME280;40964;42.114;24.220;2023-02-19T13:07:23;97747.38;;;22.18;27.86
55066;BME280;40964;42.114;24.220;2023-02-19T13:09:53;97729.38;;;21.86;28.78
55066;BME280;40964;42.114;24.220;2023-02-19T13:12:24;97734.22;;;21.83;29.11
55066;BME280;40964;42.114;24.220;2023-02-19T13:14:56;97736.25;;;21.73;29.26
55066;BME280;40964;42.114;24.220;2023-02-19T13:19:57;97719.03;;;21.79;28.60
55066;BME280;40964;42.114;24.220;2023-02-19T13:22:38;97720.03;;;21.83;28.92
55066;BME280;40964;42.114;24.220;2023-02-19T13:34:42;97696.69;;;21.70;28.31
55066;BME280;40964;42.114;24.220;2023-02-19T13:37:03;97686.19;;;21.54;28.77
55066;BME280;40964;42.114;24.220;2023-02-19T13:39:29;97691.28;;;21.75;28.54
55066;BME280;40964;42.114;24.220;2023-02-19T13:41:56;97692.91;;;21.90;29.00
55066;BME280;40964;42.114;24.220;2023-02-19T13:44:29;97676.28;;;21.74;29.17
55066;BME280;40964;42.114;24.220;2023-02-19T13:46:55;97662.06;;;21.41;28.70
55066;BME280;40964;42.114;24.220;2023-02-19T13:54:42;97669.84;;;21.37;28.99
55066;BME280;40964;42.114;24.220;2023-02-19T13:59:43;97656.34;;;21.29;28.90
55066;BME280;40964;42.114;24.220;2023-02-19T14:02:24;97650.63;;;21.35;28.88
55066;BME280;40964;42.114;24.220;2023-02-19T14:09:55;97631.34;;;20.95;29.02
55066;BME280;40964;42.114;24.220;2023-02-19T14:12:31;97639.44;;;20.90;29.37
55066;BME280;40964;42.114;24.220;2023-02-19T14:18:00;97632.84;;;20.83;29.55
55066;BME280;40964;42.114;24.220;2023-02-19T14:20:39;97625.59;;;20.83;30.26
55066;BME280;40964;42.114;24.220;2023-02-19T14:23:21;97616.88;;;20.78;29.87
55066;BME280;40964;42.114;24.220;2023-02-19T14:25:55;97617.34;;;20.61;30.17
55066;BME280;40964;42.114;24.220;2023-02-19T14:28:43;97615.38;;;20.42;30.05
55066;BME280;40964;42.114;24.220;2023-02-19T14:31:17;97624.69;;;20.50;29.91
55066;BME280;40964;42.114;24.220;2023-02-19T14:33:49;97614.72;;;20.56;30.52
55066;BME280;40964;42.114;24.220;2023-02-19T14:36:29;97613.94;;;20.55;30.41
55066;BME280;40964;42.114;24.220;2023-02-19T14:38:58;97616.13;;;20.48;31.70
55066;BME280;40964;42.114;24.220;2023-02-19T14:41:24;97611.69;;;20.38;31.78
55066;BME280;40964;42.114;24.220;2023-02-19T14:43:55;97608.63;;;20.26;32.69
55066;BME280;40964;42.114;24.220;2023-02-19T14:46:37;97611.50;;;20.06;33.17
55066;BME280;40964;42.114;24.220;2023-02-19T14:49:16;97613.34;;;19.76;33.61
55066;BME280;40964;42.114;24.220;2023-02-19T14:51:47;97610.31;;;19.54;34.45
55066;BME280;40964;42.114;24.220;2023-02-19T14:54:19;97611.28;;;19.29;35.01
55066;BME280;40964;42.114;24.220;2023-02-19T14:56:50;97579.78;;;18.92;35.17
55066;BME280;40964;42.114;24.220;2023-02-19T14:59:24;97603.59;;;18.78;35.61
55066;BME280;40964;42.114;24.220;2023-02-19T15:04:26;97597.31;;;18.33;36.50
55066;BME280;40964;42.114;24.220;2023-02-19T15:06:52;97593.38;;;18.10;37.08
55066;BME280;40964;42.114;24.220;2023-02-19T15:09:25;97580.09;;;17.95;37.13
55066;BME280;40964;42.114;24.220;2023-02-19T15:11:54;97581.44;;;17.87;37.25
55066;BME280;40964;42.114;24.220;2023-02-19T15:14:22;97582.78;;;17.75;37.42
55066;BME280;40964;42.114;24.220;2023-02-19T15:16:58;97585.16;;;17.56;37.95
55066;BME280;40964;42.114;24.220;2023-02-19T15:19:25;97583.81;;;17.23;38.20
55066;BME280;40964;42.114;24.220;2023-02-19T15:21:51;97584.56;;;16.98;39.07
55066;BME280;40964;42.114;24.220;2023-02-19T15:24:17;97586.09;;;16.73;39.49
55066;BME280;40964;42.114;24.220;2023-02-19T15:26:47;97579.63;;;16.59;39.66
55066;BME280;40964;42.114;24.220;2023-02-19T15:29:17;97585.69;;;16.44;39.90